createdAt,value
2023-01-08T00:00:57.633Z,49.70
2023-01-08T00:05:50.929Z,47.23
2023-01-08T00:10:44.049Z,45.80
2023-01-08T00:15:37.487Z,55.80
2023-01-08T00:20:32.378Z,45.20
2023-01-08T00:25:25.647Z,46.27
2023-01-08T00:30:18.896Z,43.97
2023-01-08T00:35:12.191Z,42.77
2023-01-08T00:40:08.506Z,45.87
2023-01-08T00:45:01.759Z,45.87
2023-01-08T00:49:54.995Z,41.20
2023-01-08T00:54:48.181Z,42.47
2023-01-08T00:59:42.909Z,36.17
2023-01-08T01:04:36.285Z,39.73
2023-01-08T01:09:29.651Z,43.10
2023-01-08T01:14:23.037Z,44.13
2023-01-08T01:19:19.124Z,44.97
2023-01-08T01:24:15.830Z,43.60
2023-01-08T01:29:09.059Z,48.40
2023-01-08T01:34:02.418Z,41.93
2023-01-08T01:38:59.181Z,41.17
2023-01-08T01:43:52.983Z,38.63
2023-01-08T01:48:48.077Z,34.80
2023-01-08T01:53:41.944Z,32.63
2023-01-08T01:58:37.188Z,38.47
2023-01-08T02:03:32.181Z,38.20
2023-01-08T02:08:35.738Z,36.10
2023-01-08T02:13:35.290Z,40.07
2023-01-08T02:18:38.235Z,38.27
2023-01-08T02:23:38.608Z,33.23
2023-01-08T02:28:37.811Z,32.33
2023-01-08T02:33:33.141Z,37.33
2023-01-08T02:38:27.092Z,33.50
2023-01-08T02:43:27.423Z,37.20
2023-01-08T02:48:34.211Z,60.70
2023-01-08T02:53:30.235Z,67.33
2023-01-08T02:58:24.712Z,54.37
2023-01-08T03:03:20.734Z,52.63
2023-01-08T03:08:15.788Z,45.50
2023-01-08T03:13:16.757Z,43.40
2023-01-08T03:18:15.049Z,22.60
2023-01-08T03:23:11.813Z,30.70
2023-01-08T03:28:13.118Z,32.33
2023-01-08T03:33:08.789Z,32.90
2023-01-08T03:38:08.955Z,31.73
2023-01-08T03:43:02.348Z,29.17
2023-01-08T03:47:58.389Z,38.63
2023-01-08T03:52:51.575Z,42.93
2023-01-08T03:57:44.737Z,34.37
2023-01-08T04:02:38.360Z,40.37
2023-01-08T04:07:32.933Z,53.00
2023-01-08T04:12:26.064Z,33.90
2023-01-08T04:17:19.292Z,35.07
2023-01-08T04:22:12.492Z,37.27
2023-01-08T04:27:07.170Z,37.60
2023-01-08T04:32:01.360Z,45.97
2023-01-08T04:36:54.590Z,40.00
2023-01-08T04:41:47.958Z,41.00
2023-01-08T04:46:42.552Z,39.30
2023-01-08T04:51:35.858Z,44.40
2023-01-08T04:56:29.120Z,47.03
2023-01-08T05:01:25.419Z,45.80
2023-01-08T05:06:20.126Z,43.53
2023-01-08T05:11:13.301Z,39.67
2023-01-08T05:16:07.032Z,44.90
2023-01-08T05:21:03.032Z,40.47
2023-01-08T05:25:59.913Z,42.87
2023-01-08T05:30:53.194Z,43.27
2023-01-08T05:35:46.721Z,40.43
2023-01-08T05:40:40.077Z,42.43
2023-01-08T05:45:35.183Z,45.03
2023-01-08T05:50:28.422Z,43.13
2023-01-08T05:55:21.608Z,43.27
2023-01-08T06:00:16.410Z,42.03
2023-01-08T06:05:11.415Z,41.60
2023-01-08T06:10:04.957Z,44.47
2023-01-08T06:14:58.154Z,42.20
2023-01-08T06:19:51.403Z,33.37
2023-01-08T06:24:46.092Z,28.67
2023-01-08T06:29:39.385Z,29.70
2023-01-08T06:34:32.752Z,29.80
2023-01-08T06:39:28.068Z,28.53
2023-01-08T06:44:23.173Z,28.40
2023-01-08T06:49:17.637Z,25.47
2023-01-08T06:54:13.469Z,22.53
2023-01-08T06:59:07.501Z,22.53
2023-01-08T07:04:02.309Z,22.27
2023-01-08T07:08:58.084Z,21.47
2023-01-08T07:13:51.586Z,50.73
2023-01-08T07:18:45.022Z,65.43
2023-01-08T07:23:39.797Z,93.80
2023-01-08T07:28:33.414Z,74.53
2023-01-08T07:33:26.799Z,60.33
2023-01-08T07:38:20.080Z,56.40
2023-01-08T07:43:15.065Z,180.93
2023-01-08T07:48:10.670Z,59.83
2023-01-08T07:53:04.352Z,54.87
2023-01-08T07:57:57.770Z,64.17
2023-01-08T08:02:52.497Z,48.47
2023-01-08T08:07:45.900Z,47.20
2023-01-08T08:12:39.200Z,50.37
2023-01-08T08:17:32.348Z,50.23
2023-01-08T08:22:27.558Z,47.43
2023-01-08T08:27:20.800Z,44.53
2023-01-08T08:32:14.124Z,34.23
2023-01-08T08:37:07.297Z,26.17
2023-01-08T08:42:01.965Z,24.53
2023-01-08T08:46:55.284Z,26.60
2023-01-08T08:51:48.596Z,26.70
2023-01-08T08:56:42.089Z,26.70
2023-01-08T09:01:36.850Z,21.67
2023-01-08T09:06:30.100Z,25.10
2023-01-08T09:11:23.427Z,23.17
2023-01-08T09:16:16.689Z,22.03
2023-01-08T09:21:11.995Z,22.97
2023-01-08T09:26:07.289Z,23.10
2023-01-08T09:31:02.950Z,22.23
2023-01-08T09:35:56.761Z,20.80
2023-01-08T09:40:59.693Z,19.75
2023-01-08T09:45:56.834Z,21.23
2023-01-08T09:50:52.133Z,21.05
2023-01-08T09:55:51.766Z,18.73
2023-01-08T10:00:51.088Z,20.42
2023-01-08T10:05:44.432Z,21.20
2023-01-08T10:10:39.189Z,21.90
2023-01-08T10:15:32.460Z,22.15
2023-01-08T10:20:29.020Z,19.77
2023-01-08T10:25:24.232Z,18.15
2023-01-08T10:30:19.681Z,20.35
2023-01-08T10:35:20.267Z,19.13
2023-01-08T10:40:25.367Z,19.25
2023-01-08T10:45:25.548Z,15.82
2023-01-08T10:50:23.814Z,14.48
2023-01-08T10:55:25.845Z,17.55
2023-01-08T11:00:30.929Z,15.98
2023-01-08T11:05:33.382Z,17.00
2023-01-08T11:10:29.973Z,19.48
2023-01-08T11:15:32.366Z,26.05
2023-01-08T11:20:30.923Z,17.17
2023-01-08T11:25:31.436Z,20.00
2023-01-08T11:35:22.462Z,18.23
2023-01-08T11:40:17.477Z,21.40
2023-01-08T11:45:28.865Z,17.63
2023-01-08T11:50:29.023Z,19.13
2023-01-08T11:55:33.586Z,16.98
2023-01-08T12:00:58.433Z,15.98
2023-01-08T12:06:00.545Z,23.88
2023-01-08T12:11:03.917Z,15.55
2023-01-08T12:16:11.149Z,16.10
2023-01-08T12:21:14.403Z,17.67
2023-01-08T12:26:25.489Z,15.95
2023-01-08T12:31:57.646Z,21.90
2023-01-08T12:37:03.843Z,15.05
2023-01-08T12:42:08.571Z,15.73
2023-01-08T12:47:05.612Z,21.77
2023-01-08T12:52:08.613Z,21.25
2023-01-08T12:57:10.200Z,16.73
2023-01-08T13:02:18.199Z,21.88
2023-01-08T13:07:19.192Z,16.73
2023-01-08T13:12:15.998Z,17.00
2023-01-08T13:17:19.136Z,17.85
2023-01-08T13:22:31.403Z,17.17
2023-01-08T13:27:30.581Z,18.50
2023-01-08T13:32:47.044Z,17.90
2023-01-08T13:37:40.372Z,15.80
2023-01-08T13:42:35.676Z,15.45
2023-01-08T13:47:39.601Z,15.88
2023-01-08T13:52:41.321Z,16.95
2023-01-08T13:57:42.697Z,17.50
2023-01-08T14:02:50.343Z,19.42
2023-01-08T14:07:45.287Z,21.05
2023-01-08T14:12:38.478Z,19.80
2023-01-08T14:17:33.831Z,20.95
2023-01-08T14:22:32.224Z,33.58
2023-01-08T14:27:29.756Z,21.80
2023-01-08T14:32:25.071Z,22.92
2023-01-08T14:37:18.877Z,22.13
2023-01-08T14:42:35.104Z,21.63
2023-01-08T14:47:34.812Z,23.45
2023-01-08T14:52:28.327Z,23.67
2023-01-08T14:57:24.177Z,26.23
2023-01-08T15:02:25.307Z,27.35
2023-01-08T15:07:27.714Z,28.67
2023-01-08T15:12:25.820Z,33.05
2023-01-08T15:17:21.394Z,46.70
2023-01-08T15:22:19.834Z,29.45
2023-01-08T15:27:21.484Z,27.20
2023-01-08T15:32:23.427Z,25.98
2023-01-08T15:37:19.405Z,24.45
2023-01-08T15:42:40.637Z,25.23
2023-01-08T15:47:34.195Z,29.27
2023-01-08T15:52:30.774Z,26.48
2023-01-08T15:57:25.645Z,26.60
2023-01-08T16:02:19.324Z,24.92
2023-01-08T16:07:12.853Z,26.88
2023-01-08T16:12:06.828Z,29.83
2023-01-08T16:17:02.678Z,31.83
2023-01-08T16:21:56.021Z,30.10
2023-01-08T16:26:49.318Z,28.13
2023-01-08T16:31:46.042Z,30.25
2023-01-08T16:36:40.909Z,27.35
2023-01-08T16:41:36.925Z,25.90
2023-01-08T16:46:30.284Z,28.67
2023-01-08T16:51:25.402Z,30.70
2023-01-08T16:56:20.161Z,29.92
2023-01-08T17:01:13.877Z,31.53
2023-01-08T17:06:08.832Z,38.93
2023-01-08T17:11:02.268Z,29.07
2023-01-08T17:15:59.012Z,28.80
2023-01-08T17:20:56.828Z,36.00
2023-01-08T17:25:50.143Z,28.33
2023-01-08T17:30:43.531Z,26.17
2023-01-08T17:35:38.236Z,27.43
2023-01-08T17:40:34.901Z,28.10
2023-01-08T17:45:28.167Z,30.13
2023-01-08T17:50:21.693Z,28.80
2023-01-08T17:55:16.609Z,30.50
2023-01-08T18:00:11.796Z,31.00
2023-01-08T18:05:07.195Z,27.83
2023-01-08T18:10:03.639Z,30.50
2023-01-08T18:14:58.282Z,33.17
2023-01-08T18:19:51.706Z,35.30
2023-01-08T18:24:48.023Z,34.07
2023-01-08T18:29:44.047Z,38.77
2023-01-08T18:34:39.026Z,33.97
2023-01-08T18:39:34.938Z,32.50
2023-01-08T18:44:28.321Z,32.90
2023-01-08T18:49:23.641Z,45.10
2023-01-08T18:54:21.314Z,42.60
2023-01-08T18:59:15.618Z,40.73
2023-01-08T19:04:11.510Z,39.67
2023-01-08T19:09:07.813Z,36.77
2023-01-08T19:14:02.428Z,33.73
2023-01-08T19:18:55.909Z,34.87
2023-01-08T19:23:49.534Z,37.47
2023-01-08T19:28:43.294Z,37.03
2023-01-08T19:33:38.001Z,35.53
2023-01-08T19:38:31.470Z,33.33
2023-01-08T19:43:46.010Z,31.63
2023-01-08T19:48:42.687Z,33.10
2023-01-08T19:53:36.120Z,32.13
2023-01-08T19:58:29.965Z,31.20
2023-01-08T20:03:26.637Z,29.03
2023-01-08T20:08:22.273Z,27.13
2023-01-08T20:13:15.674Z,35.53
2023-01-08T20:18:11.592Z,32.90
2023-01-08T20:23:05.031Z,31.70
2023-01-08T20:28:01.623Z,34.37
2023-01-08T20:32:55.003Z,34.90
2023-01-08T20:37:51.062Z,33.00
2023-01-08T20:42:47.018Z,40.03
2023-01-08T20:47:45.723Z,35.50
2023-01-08T20:52:39.248Z,36.57
2023-01-08T20:57:32.488Z,37.73
2023-01-08T21:02:26.040Z,42.80
2023-01-08T21:07:20.672Z,39.13
2023-01-08T21:12:15.270Z,49.43
2023-01-08T21:17:08.412Z,38.50
2023-01-08T21:22:01.563Z,36.67
2023-01-08T21:26:56.324Z,47.80
2023-01-08T21:31:50.179Z,45.10
2023-01-08T21:36:43.639Z,38.13
2023-01-08T21:41:55.935Z,34.50
2023-01-08T21:46:52.044Z,31.63
2023-01-08T21:52:02.699Z,42.90
2023-01-08T21:56:55.923Z,30.02
2023-01-08T22:01:50.652Z,23.80
2023-01-08T22:06:44.026Z,23.50
2023-01-08T22:11:37.332Z,24.10
2023-01-08T22:16:30.685Z,23.17
2023-01-08T22:21:25.366Z,22.30
2023-01-08T22:26:22.849Z,21.87
2023-01-08T22:31:17.309Z,21.83
2023-01-08T22:36:13.431Z,21.00
2023-01-08T22:41:15.433Z,22.13
2023-01-08T22:46:08.809Z,23.47
2023-01-08T22:51:04.088Z,24.03
2023-01-08T22:55:59.554Z,23.80
2023-01-08T23:00:54.135Z,24.87
2023-01-08T23:05:47.487Z,25.63
2023-01-08T23:10:40.718Z,42.70
2023-01-08T23:15:33.909Z,46.60
2023-01-08T23:20:28.565Z,47.53
2023-01-08T23:25:21.918Z,37.93
2023-01-08T23:30:15.365Z,31.30
2023-01-08T23:35:10.095Z,32.47
2023-01-08T23:40:04.810Z,35.03
2023-01-08T23:45:01.178Z,30.33
2023-01-08T23:49:54.435Z,32.03
2023-01-08T23:54:47.560Z,32.43
2023-01-08T23:59:42.156Z,29.93
